sensor_id;sensor_type;location;lat;lon;timestamp;P1;durP1;ratioP1;P2;durP2;ratioP2
8279;SDS011;8335;42.646;23.380;2023-08-07T00:01:33;1.63;;;1.52;;
8279;SDS011;8335;42.646;23.380;2023-08-07T00:04:00;2.35;;;1.88;;
8279;SDS011;8335;42.646;23.380;2023-08-07T00:06:27;1.88;;;1.55;;
8279;SDS011;8335;42.646;23.380;2023-08-07T00:08:55;2.83;;;1.70;;
8279;SDS011;8335;42.646;23.380;2023-08-07T00:11:22;1.95;;;1.75;;
8279;SDS011;8335;42.646;23.380;2023-08-07T00:13:49;2.20;;;2.00;;
8279;SDS011;8335;42.646;23.380;2023-08-07T00:16:15;2.45;;;2.05;;
8279;SDS011;8335;42.646;23.380;2023-08-07T00:18:42;2.40;;;2.03;;
8279;SDS011;8335;42.646;23.380;2023-08-07T00:21:09;2.25;;;2.05;;
8279;SDS011;8335;42.646;23.380;2023-08-07T00:23:36;2.15;;;1.95;;
8279;SDS011;8335;42.646;23.380;2023-08-07T00:26:04;2.40;;;2.17;;
8279;SDS011;8335;42.646;23.380;2023-08-07T00:28:30;1.90;;;1.80;;
8279;SDS011;8335;42.646;23.380;2023-08-07T00:30:57;2.10;;;1.90;;
8279;SDS011;8335;42.646;23.380;2023-08-07T00:33:24;2.20;;;2.00;;
8279;SDS011;8335;42.646;23.380;2023-08-07T00:35:51;4.07;;;2.35;;
8279;SDS011;8335;42.646;23.380;2023-08-07T00:38:18;2.30;;;2.10;;
8279;SDS011;8335;42.646;23.380;2023-08-07T00:40:44;2.67;;;2.40;;
8279;SDS011;8335;42.646;23.380;2023-08-07T00:43:12;2.40;;;2.20;;
8279;SDS011;8335;42.646;23.380;2023-08-07T00:45:41;3.08;;;2.00;;
8279;SDS011;8335;42.646;23.380;2023-08-07T00:48:09;2.42;;;2.05;;
8279;SDS011;8335;42.646;23.380;2023-08-07T00:50:37;2.25;;;2.05;;
8279;SDS011;8335;42.646;23.380;2023-08-07T00:53:05;2.50;;;2.30;;
8279;SDS011;8335;42.646;23.380;2023-08-07T00:55:33;2.92;;;2.20;;
8279;SDS011;8335;42.646;23.380;2023-08-07T00:57:59;2.80;;;2.60;;
8279;SDS011;8335;42.646;23.380;2023-08-07T01:00:28;3.45;;;2.40;;
8279;SDS011;8335;42.646;23.380;2023-08-07T01:02:55;3.33;;;2.47;;
8279;SDS011;8335;42.646;23.380;2023-08-07T01:05:23;2.80;;;2.60;;
8279;SDS011;8335;42.646;23.380;2023-08-07T01:07:51;2.90;;;2.30;;
8279;SDS011;8335;42.646;23.380;2023-08-07T01:10:21;2.85;;;2.63;;
8279;SDS011;8335;42.646;23.380;2023-08-07T01:12:57;2.97;;;2.67;;
8279;SDS011;8335;42.646;23.380;2023-08-07T01:15:32;3.25;;;2.67;;
8279;SDS011;8335;42.646;23.380;2023-08-07T01:18:00;3.33;;;2.80;;
8279;SDS011;8335;42.646;23.380;2023-08-07T01:20:29;2.72;;;2.53;;
8279;SDS011;8335;42.646;23.380;2023-08-07T01:22:58;2.97;;;2.70;;
8279;SDS011;8335;42.646;23.380;2023-08-07T01:25:25;3.72;;;2.42;;
8279;SDS011;8335;42.646;23.380;2023-08-07T01:27:55;3.92;;;3.17;;
8279;SDS011;8335;42.646;23.380;2023-08-07T01:30:30;3.33;;;3.03;;
8279;SDS011;8335;42.646;23.380;2023-08-07T01:33:04;3.42;;;2.90;;
8279;SDS011;8335;42.646;23.380;2023-08-07T01:35:40;3.40;;;3.10;;
8279;SDS011;8335;42.646;23.380;2023-08-07T01:38:11;4.03;;;3.30;;
8279;SDS011;8335;42.646;23.380;2023-08-07T01:40:39;3.53;;;3.23;;
8279;SDS011;8335;42.646;23.380;2023-08-07T01:43:07;5.80;;;3.60;;
8279;SDS011;8335;42.646;23.380;2023-08-07T01:45:34;4.50;;;3.20;;
8279;SDS011;8335;42.646;23.380;2023-08-07T01:48:01;3.70;;;3.40;;
8279;SDS011;8335;42.646;23.380;2023-08-07T01:50:28;4.63;;;3.53;;
8279;SDS011;8335;42.646;23.380;2023-08-07T01:52:55;3.73;;;3.40;;
8279;SDS011;8335;42.646;23.380;2023-08-07T01:55:23;3.60;;;3.30;;
8279;SDS011;8335;42.646;23.380;2023-08-07T01:57:50;4.72;;;3.72;;
8279;SDS011;8335;42.646;23.380;2023-08-07T02:00:17;3.80;;;3.50;;
8279;SDS011;8335;42.646;23.380;2023-08-07T02:02:44;4.38;;;3.55;;
8279;SDS011;8335;42.646;23.380;2023-08-07T02:05:12;4.13;;;3.78;;
8279;SDS011;8335;42.646;23.380;2023-08-07T02:07:39;3.90;;;3.50;;
8279;SDS011;8335;42.646;23.380;2023-08-07T02:10:06;4.03;;;3.70;;
8279;SDS011;8335;42.646;23.380;2023-08-07T02:12:34;3.72;;;3.40;;
8279;SDS011;8335;42.646;23.380;2023-08-07T02:15:01;4.38;;;3.15;;
8279;SDS011;8335;42.646;23.380;2023-08-07T02:17:28;4.22;;;3.83;;
8279;SDS011;8335;42.646;23.380;2023-08-07T02:19:56;4.03;;;3.67;;
8279;SDS011;8335;42.646;23.380;2023-08-07T02:22:23;5.43;;;3.33;;
8279;SDS011;8335;42.646;23.380;2023-08-07T02:24:50;3.83;;;3.42;;
8279;SDS011;8335;42.646;23.380;2023-08-07T02:27:17;4.38;;;3.10;;
8279;SDS011;8335;42.646;23.380;2023-08-07T02:29:45;3.95;;;3.63;;
8279;SDS011;8335;42.646;23.380;2023-08-07T02:32:12;5.20;;;3.83;;
8279;SDS011;8335;42.646;23.380;2023-08-07T02:34:39;3.85;;;3.55;;
8279;SDS011;8335;42.646;23.380;2023-08-07T02:37:05;4.97;;;3.90;;
8279;SDS011;8335;42.646;23.380;2023-08-07T02:39:32;4.93;;;3.60;;
8279;SDS011;8335;42.646;23.380;2023-08-07T02:41:59;4.15;;;3.75;;
8279;SDS011;8335;42.646;23.380;2023-08-07T02:44:26;5.45;;;4.13;;
8279;SDS011;8335;42.646;23.380;2023-08-07T02:46:54;4.20;;;3.90;;
8279;SDS011;8335;42.646;23.380;2023-08-07T02:49:21;4.32;;;3.92;;
8279;SDS011;8335;42.646;23.380;2023-08-07T02:51:47;4.10;;;3.55;;
8279;SDS011;8335;42.646;23.380;2023-08-07T02:54:14;4.00;;;3.70;;
8279;SDS011;8335;42.646;23.380;2023-08-07T02:56:41;4.70;;;4.30;;
8279;SDS011;8335;42.646;23.380;2023-08-07T02:59:08;3.97;;;3.60;;
8279;SDS011;8335;42.646;23.380;2023-08-07T03:01:35;4.20;;;3.05;;
8279;SDS011;8335;42.646;23.380;2023-08-07T03:04:03;5.28;;;3.78;;
8279;SDS011;8335;42.646;23.380;2023-08-07T03:06:30;3.42;;;3.13;;
8279;SDS011;8335;42.646;23.380;2023-08-07T03:08:57;4.00;;;3.55;;
8279;SDS011;8335;42.646;23.380;2023-08-07T03:11:24;5.88;;;3.60;;
8279;SDS011;8335;42.646;23.380;2023-08-07T03:13:50;3.67;;;3.28;;
8279;SDS011;8335;42.646;23.380;2023-08-07T03:16:17;4.50;;;3.60;;
8279;SDS011;8335;42.646;23.380;2023-08-07T03:18:44;4.85;;;3.20;;
8279;SDS011;8335;42.646;23.380;2023-08-07T03:21:13;3.80;;;3.28;;
8279;SDS011;8335;42.646;23.380;2023-08-07T03:23:40;4.13;;;3.40;;
8279;SDS011;8335;42.646;23.380;2023-08-07T03:26:07;3.50;;;3.20;;
8279;SDS011;8335;42.646;23.380;2023-08-07T03:28:35;3.80;;;3.50;;
8279;SDS011;8335;42.646;23.380;2023-08-07T03:31:02;3.90;;;3.50;;
8279;SDS011;8335;42.646;23.380;2023-08-07T03:33:29;3.42;;;3.13;;
8279;SDS011;8335;42.646;23.380;2023-08-07T03:35:56;6.28;;;3.90;;
8279;SDS011;8335;42.646;23.380;2023-08-07T03:38:24;4.38;;;3.85;;
8279;SDS011;8335;42.646;23.380;2023-08-07T03:40:51;3.85;;;3.55;;
8279;SDS011;8335;42.646;23.380;2023-08-07T03:43:18;3.60;;;3.28;;
8279;SDS011;8335;42.646;23.380;2023-08-07T03:45:45;4.35;;;3.63;;
8279;SDS011;8335;42.646;23.380;2023-08-07T03:48:11;5.18;;;3.30;;
8279;SDS011;8335;42.646;23.380;2023-08-07T03:50:38;4.75;;;3.58;;
8279;SDS011;8335;42.646;23.380;2023-08-07T03:53:05;4.28;;;3.88;;
8279;SDS011;8335;42.646;23.380;2023-08-07T03:55:34;3.70;;;3.40;;
8279;SDS011;8335;42.646;23.380;2023-08-07T03:58:01;4.60;;;4.13;;
8279;SDS011;8335;42.646;23.380;2023-08-07T04:00:28;4.07;;;3.45;;
8279;SDS011;8335;42.646;23.380;2023-08-07T04:02:55;4.75;;;3.67;;
8279;SDS011;8335;42.646;23.380;2023-08-07T04:05:22;6.93;;;3.40;;
8279;SDS011;8335;42.646;23.380;2023-08-07T04:07:48;3.50;;;3.20;;
8279;SDS011;8335;42.646;23.380;2023-08-07T04:10:15;4.13;;;3.53;;
8279;SDS011;8335;42.646;23.380;2023-08-07T04:12:43;4.05;;;3.65;;
8279;SDS011;8335;42.646;23.380;2023-08-07T04:15:10;3.88;;;3.50;;
8279;SDS011;8335;42.646;23.380;2023-08-07T04:17:37;3.50;;;3.20;;
8279;SDS011;8335;42.646;23.380;2023-08-07T04:20:04;3.55;;;3.20;;
8279;SDS011;8335;42.646;23.380;2023-08-07T04:22:33;4.10;;;3.70;;
8279;SDS011;8335;42.646;23.380;2023-08-07T04:25:00;4.45;;;3.28;;
8279;SDS011;8335;42.646;23.380;2023-08-07T04:27:27;5.53;;;3.08;;
8279;SDS011;8335;42.646;23.380;2023-08-07T04:29:55;3.67;;;3.38;;
8279;SDS011;8335;42.646;23.380;2023-08-07T04:32:23;4.43;;;3.50;;
8279;SDS011;8335;42.646;23.380;2023-08-07T04:34:49;5.38;;;4.05;;
8279;SDS011;8335;42.646;23.380;2023-08-07T04:37:16;3.42;;;3.13;;
8279;SDS011;8335;42.646;23.380;2023-08-07T04:39:43;5.32;;;3.50;;
8279;SDS011;8335;42.646;23.380;2023-08-07T04:42:10;4.35;;;3.40;;
8279;SDS011;8335;42.646;23.380;2023-08-07T04:44:37;3.65;;;3.30;;
8279;SDS011;8335;42.646;23.380;2023-08-07T04:47:05;3.20;;;2.90;;
8279;SDS011;8335;42.646;23.380;2023-08-07T04:49:32;3.65;;;3.20;;
8279;SDS011;8335;42.646;23.380;2023-08-07T04:51:59;3.47;;;3.00;;
8279;SDS011;8335;42.646;23.380;2023-08-07T04:54:26;5.45;;;2.95;;
8279;SDS011;8335;42.646;23.380;2023-08-07T04:56:53;2.95;;;2.75;;
8279;SDS011;8335;42.646;23.380;2023-08-07T04:59:19;3.15;;;2.42;;
8279;SDS011;8335;42.646;23.380;2023-08-07T05:01:46;4.07;;;2.40;;
8279;SDS011;8335;42.646;23.380;2023-08-07T05:04:14;2.63;;;2.42;;
8279;SDS011;8335;42.646;23.380;2023-08-07T05:06:41;3.72;;;2.38;;
8279;SDS011;8335;42.646;23.380;2023-08-07T05:09:08;2.88;;;2.25;;
8279;SDS011;8335;42.646;23.380;2023-08-07T05:11:34;4.95;;;2.15;;
8279;SDS011;8335;42.646;23.380;2023-08-07T05:14:01;3.40;;;2.03;;
8279;SDS011;8335;42.646;23.380;2023-08-07T05:16:28;2.22;;;2.00;;
8279;SDS011;8335;42.646;23.380;2023-08-07T05:18:55;3.80;;;2.03;;
8279;SDS011;8335;42.646;23.380;2023-08-07T05:21:23;2.28;;;2.08;;
8279;SDS011;8335;42.646;23.380;2023-08-07T05:23:50;2.83;;;2.00;;
8279;SDS011;8335;42.646;23.380;2023-08-07T05:26:18;3.03;;;2.03;;
8279;SDS011;8335;42.646;23.380;2023-08-07T05:28:45;3.05;;;2.00;;
8279;SDS011;8335;42.646;23.380;2023-08-07T05:31:12;2.08;;;1.88;;
8279;SDS011;8335;42.646;23.380;2023-08-07T05:33:39;12.82;;;8.90;;
8279;SDS011;8335;42.646;23.380;2023-08-07T05:36:06;2.70;;;2.28;;
8279;SDS011;8335;42.646;23.380;2023-08-07T05:38:34;3.22;;;1.80;;
8279;SDS011;8335;42.646;23.380;2023-08-07T05:41:01;2.10;;;1.90;;
8279;SDS011;8335;42.646;23.380;2023-08-07T05:43:28;3.42;;;1.80;;
8279;SDS011;8335;42.646;23.380;2023-08-07T05:45:54;3.50;;;2.22;;
8279;SDS011;8335;42.646;23.380;2023-08-07T05:48:21;4.15;;;2.55;;
8279;SDS011;8335;42.646;23.380;2023-08-07T05:50:48;2.58;;;1.80;;
8279;SDS011;8335;42.646;23.380;2023-08-07T05:53:15;2.80;;;1.83;;
8279;SDS011;8335;42.646;23.380;2023-08-07T05:55:43;1.80;;;1.70;;
8279;SDS011;8335;42.646;23.380;2023-08-07T05:58:10;2.85;;;1.52;;
8279;SDS011;8335;42.646;23.380;2023-08-07T06:00:37;2.42;;;1.70;;
8279;SDS011;8335;42.646;23.380;2023-08-07T06:03:04;1.77;;;1.60;;
8279;SDS011;8335;42.646;23.380;2023-08-07T06:05:30;2.08;;;1.55;;
8279;SDS011;8335;42.646;23.380;2023-08-07T06:07:57;2.10;;;1.73;;
8279;SDS011;8335;42.646;23.380;2023-08-07T06:10:24;2.70;;;1.92;;
8279;SDS011;8335;42.646;23.380;2023-08-07T06:12:52;4.07;;;1.85;;
8279;SDS011;8335;42.646;23.380;2023-08-07T06:15:19;1.63;;;1.52;;
8279;SDS011;8335;42.646;23.380;2023-08-07T06:17:46;1.83;;;1.70;;
8279;SDS011;8335;42.646;23.380;2023-08-07T06:20:13;4.85;;;1.80;;
8279;SDS011;8335;42.646;23.380;2023-08-07T06:22:41;3.72;;;1.52;;
8279;SDS011;8335;42.646;23.380;2023-08-07T06:25:08;1.85;;;1.50;;
8279;SDS011;8335;42.646;23.380;2023-08-07T06:27:35;2.83;;;1.63;;
8279;SDS011;8335;42.646;23.380;2023-08-07T06:30:04;1.60;;;1.50;;
8279;SDS011;8335;42.646;23.380;2023-08-07T06:32:31;4.25;;;1.63;;
8279;SDS011;8335;42.646;23.380;2023-08-07T06:34:58;3.60;;;1.67;;
8279;SDS011;8335;42.646;23.380;2023-08-07T06:37:25;2.85;;;1.70;;
8279;SDS011;8335;42.646;23.380;2023-08-07T06:39:52;2.13;;;1.60;;
8279;SDS011;8335;42.646;23.380;2023-08-07T06:42:18;3.25;;;1.83;;
8279;SDS011;8335;42.646;23.380;2023-08-07T06:44:46;1.80;;;1.60;;
8279;SDS011;8335;42.646;23.380;2023-08-07T06:47:14;1.65;;;1.52;;
8279;SDS011;8335;42.646;23.380;2023-08-07T06:49:41;1.80;;;1.67;;
8279;SDS011;8335;42.646;23.380;2023-08-07T06:52:08;2.38;;;1.45;;
8279;SDS011;8335;42.646;23.380;2023-08-07T06:54:34;1.40;;;1.30;;
8279;SDS011;8335;42.646;23.380;2023-08-07T06:57:01;1.35;;;1.25;;
8279;SDS011;8335;42.646;23.380;2023-08-07T06:59:28;2.55;;;1.30;;
8279;SDS011;8335;42.646;23.380;2023-08-07T07:01:55;2.30;;;1.10;;
8279;SDS011;8335;42.646;23.380;2023-08-07T07:04:23;1.17;;;1.00;;
8279;SDS011;8335;42.646;23.380;2023-08-07T07:06:50;2.92;;;1.23;;
8279;SDS011;8335;42.646;23.380;2023-08-07T07:09:16;3.30;;;1.50;;
8279;SDS011;8335;42.646;23.380;2023-08-07T07:11:43;1.58;;;1.48;;
8279;SDS011;8335;42.646;23.380;2023-08-07T07:14:10;2.05;;;1.40;;
8279;SDS011;8335;42.646;23.380;2023-08-07T07:16:37;2.13;;;1.50;;
8279;SDS011;8335;42.646;23.380;2023-08-07T07:19:04;2.15;;;1.20;;
8279;SDS011;8335;42.646;23.380;2023-08-07T07:21:34;1.63;;;1.10;;
8279;SDS011;8335;42.646;23.380;2023-08-07T07:24:01;1.63;;;1.40;;
8279;SDS011;8335;42.646;23.380;2023-08-07T07:26:28;1.63;;;1.52;;
8279;SDS011;8335;42.646;23.380;2023-08-07T07:28:54;3.88;;;1.40;;
8279;SDS011;8335;42.646;23.380;2023-08-07T07:31:21;2.05;;;1.30;;
8279;SDS011;8335;42.646;23.380;2023-08-07T07:33:48;1.60;;;1.42;;
8279;SDS011;8335;42.646;23.380;2023-08-07T07:36:15;8.52;;;1.90;;
8279;SDS011;8335;42.646;23.380;2023-08-07T07:38:44;2.63;;;1.48;;
8279;SDS011;8335;42.646;23.380;2023-08-07T07:41:12;2.08;;;1.40;;
8279;SDS011;8335;42.646;23.380;2023-08-07T07:43:39;2.90;;;1.60;;
8279;SDS011;8335;42.646;23.380;2023-08-07T07:46:06;1.48;;;1.38;;
8279;SDS011;8335;42.646;23.380;2023-08-07T07:48:33;1.50;;;1.30;;
8279;SDS011;8335;42.646;23.380;2023-08-07T07:51:00;2.55;;;1.50;;
8279;SDS011;8335;42.646;23.380;2023-08-07T07:53:29;1.50;;;1.30;;
8279;SDS011;8335;42.646;23.380;2023-08-07T07:55:57;1.80;;;1.40;;
8279;SDS011;8335;42.646;23.380;2023-08-07T07:58:24;3.05;;;1.35;;
8279;SDS011;8335;42.646;23.380;2023-08-07T08:00:51;1.50;;;1.40;;
8279;SDS011;8335;42.646;23.380;2023-08-07T08:03:20;1.90;;;1.33;;
8279;SDS011;8335;42.646;23.380;2023-08-07T08:05:49;2.75;;;1.38;;
8279;SDS011;8335;42.646;23.380;2023-08-07T08:08:17;1.77;;;1.30;;
8279;SDS011;8335;42.646;23.380;2023-08-07T08:10:44;1.85;;;1.20;;
8279;SDS011;8335;42.646;23.380;2023-08-07T08:13:14;1.95;;;1.20;;
8279;SDS011;8335;42.646;23.380;2023-08-07T08:15:41;2.95;;;1.70;;
8279;SDS011;8335;42.646;23.380;2023-08-07T08:18:08;3.17;;;1.63;;
8279;SDS011;8335;42.646;23.380;2023-08-07T08:20:35;6.28;;;1.75;;
8279;SDS011;8335;42.646;23.380;2023-08-07T08:23:01;1.60;;;1.50;;
8279;SDS011;8335;42.646;23.380;2023-08-07T08:25:28;3.47;;;1.80;;
8279;SDS011;8335;42.646;23.380;2023-08-07T08:27:55;2.17;;;1.60;;
8279;SDS011;8335;42.646;23.380;2023-08-07T08:30:23;3.90;;;1.70;;
8279;SDS011;8335;42.646;23.380;2023-08-07T08:32:50;1.50;;;1.40;;
8279;SDS011;8335;42.646;23.380;2023-08-07T08:35:17;2.20;;;1.60;;
8279;SDS011;8335;42.646;23.380;2023-08-07T08:37:44;2.78;;;1.50;;
8279;SDS011;8335;42.646;23.380;2023-08-07T08:40:11;2.60;;;1.85;;
8279;SDS011;8335;42.646;23.380;2023-08-07T08:42:42;3.97;;;1.95;;
8279;SDS011;8335;42.646;23.380;2023-08-07T08:45:10;3.00;;;1.67;;
8279;SDS011;8335;42.646;23.380;2023-08-07T08:47:40;1.55;;;1.45;;
8279;SDS011;8335;42.646;23.380;2023-08-07T08:50:10;1.63;;;1.52;;
8279;SDS011;8335;42.646;23.380;2023-08-07T08:52:41;1.95;;;1.48;;
8279;SDS011;8335;42.646;23.380;2023-08-07T08:55:09;1.70;;;1.60;;
8279;SDS011;8335;42.646;23.380;2023-08-07T08:57:36;1.98;;;1.65;;
8279;SDS011;8335;42.646;23.380;2023-08-07T09:00:04;2.08;;;1.77;;
8279;SDS011;8335;42.646;23.380;2023-08-07T09:02:42;2.50;;;1.58;;
8279;SDS011;8335;42.646;23.380;2023-08-07T09:05:10;4.47;;;1.48;;
8279;SDS011;8335;42.646;23.380;2023-08-07T09:07:37;3.08;;;2.10;;
8279;SDS011;8335;42.646;23.380;2023-08-07T09:10:04;1.80;;;1.60;;
8279;SDS011;8335;42.646;23.380;2023-08-07T09:12:32;2.78;;;1.77;;
8279;SDS011;8335;42.646;23.380;2023-08-07T09:15:01;2.03;;;1.40;;
8279;SDS011;8335;42.646;23.380;2023-08-07T09:17:31;1.42;;;1.33;;
8279;SDS011;8335;42.646;23.380;2023-08-07T09:20:01;1.50;;;1.40;;
8279;SDS011;8335;42.646;23.380;2023-08-07T09:22:29;1.40;;;1.30;;
8279;SDS011;8335;42.646;23.380;2023-08-07T09:24:56;7.22;;;1.30;;
8279;SDS011;8335;42.646;23.380;2023-08-07T09:27:25;2.35;;;1.27;;
8279;SDS011;8335;42.646;23.380;2023-08-07T09:29:52;2.78;;;1.50;;
8279;SDS011;8335;42.646;23.380;2023-08-07T09:32:21;1.52;;;1.42;;
8279;SDS011;8335;42.646;23.380;2023-08-07T09:34:49;2.00;;;1.60;;
8279;SDS011;8335;42.646;23.380;2023-08-07T09:37:18;3.05;;;1.52;;
8279;SDS011;8335;42.646;23.380;2023-08-07T09:39:45;1.90;;;1.60;;
8279;SDS011;8335;42.646;23.380;2023-08-07T09:42:12;2.75;;;2.00;;
8279;SDS011;8335;42.646;23.380;2023-08-07T09:44:40;2.92;;;1.60;;
8279;SDS011;8335;42.646;23.380;2023-08-07T09:47:13;2.13;;;1.42;;
8279;SDS011;8335;42.646;23.380;2023-08-07T09:49:41;1.30;;;1.20;;
8279;SDS011;8335;42.646;23.380;2023-08-07T09:52:09;1.42;;;1.33;;
8279;SDS011;8335;42.646;23.380;2023-08-07T09:54:39;3.17;;;1.67;;
8279;SDS011;8335;42.646;23.380;2023-08-07T09:57:06;2.88;;;1.20;;
8279;SDS011;8335;42.646;23.380;2023-08-07T09:59:33;2.17;;;1.50;;
8279;SDS011;8335;42.646;23.380;2023-08-07T10:02:01;1.45;;;1.35;;
8279;SDS011;8335;42.646;23.380;2023-08-07T10:04:28;3.70;;;1.33;;
8279;SDS011;8335;42.646;23.380;2023-08-07T10:06:56;4.90;;;1.60;;
8279;SDS011;8335;42.646;23.380;2023-08-07T10:09:23;2.72;;;1.67;;
8279;SDS011;8335;42.646;23.380;2023-08-07T10:11:51;3.30;;;1.30;;
8279;SDS011;8335;42.646;23.380;2023-08-07T10:14:18;1.35;;;1.25;;
8279;SDS011;8335;42.646;23.380;2023-08-07T10:16:45;2.63;;;1.52;;
8279;SDS011;8335;42.646;23.380;2023-08-07T10:19:12;2.35;;;1.40;;
8279;SDS011;8335;42.646;23.380;2023-08-07T10:21:39;1.50;;;1.40;;
8279;SDS011;8335;42.646;23.380;2023-08-07T10:24:07;2.47;;;1.30;;
8279;SDS011;8335;42.646;23.380;2023-08-07T10:26:43;3.13;;;1.60;;
8279;SDS011;8335;42.646;23.380;2023-08-07T10:29:14;2.80;;;1.60;;
8279;SDS011;8335;42.646;23.380;2023-08-07T10:31:45;3.15;;;1.65;;
8279;SDS011;8335;42.646;23.380;2023-08-07T10:34:14;3.58;;;1.60;;
8279;SDS011;8335;42.646;23.380;2023-08-07T10:36:40;1.77;;;1.33;;
8279;SDS011;8335;42.646;23.380;2023-08-07T10:39:08;3.13;;;1.60;;
8279;SDS011;8335;42.646;23.380;2023-08-07T10:41:39;3.08;;;1.90;;
8279;SDS011;8335;42.646;23.380;2023-08-07T10:44:17;3.25;;;1.85;;
8279;SDS011;8335;42.646;23.380;2023-08-07T10:46:48;3.95;;;1.80;;
8279;SDS011;8335;42.646;23.380;2023-08-07T10:49:29;2.45;;;1.85;;
8279;SDS011;8335;42.646;23.380;2023-08-07T10:51:58;4.03;;;1.60;;
8279;SDS011;8335;42.646;23.380;2023-08-07T10:54:25;2.33;;;1.60;;
8279;SDS011;8335;42.646;23.380;2023-08-07T10:56:52;4.30;;;1.50;;
8279;SDS011;8335;42.646;23.380;2023-08-07T10:59:21;3.47;;;1.50;;
8279;SDS011;8335;42.646;23.380;2023-08-07T11:01:53;1.80;;;1.55;;
8279;SDS011;8335;42.646;23.380;2023-08-07T11:04:21;1.70;;;1.60;;
8279;SDS011;8335;42.646;23.380;2023-08-07T11:06:50;3.90;;;1.60;;
8279;SDS011;8335;42.646;23.380;2023-08-07T11:09:17;2.17;;;1.77;;
8279;SDS011;8335;42.646;23.380;2023-08-07T11:11:44;2.47;;;1.98;;
8279;SDS011;8335;42.646;23.380;2023-08-07T11:14:14;2.47;;;1.70;;
8279;SDS011;8335;42.646;23.380;2023-08-07T11:16:43;3.88;;;1.85;;
8279;SDS011;8335;42.646;23.380;2023-08-07T11:19:12;2.22;;;2.03;;
8279;SDS011;8335;42.646;23.380;2023-08-07T11:21:40;1.60;;;1.50;;
8279;SDS011;8335;42.646;23.380;2023-08-07T11:24:07;2.45;;;1.85;;
8279;SDS011;8335;42.646;23.380;2023-08-07T11:26:34;1.92;;;1.77;;
8279;SDS011;8335;42.646;23.380;2023-08-07T11:29:01;3.15;;;1.85;;
8279;SDS011;8335;42.646;23.380;2023-08-07T11:31:28;2.28;;;1.80;;
8279;SDS011;8335;42.646;23.380;2023-08-07T11:33:56;5.82;;;2.10;;
8279;SDS011;8335;42.646;23.380;2023-08-07T11:36:24;1.70;;;1.60;;
8279;SDS011;8335;42.646;23.380;2023-08-07T11:38:51;6.63;;;2.15;;
8279;SDS011;8335;42.646;23.380;2023-08-07T11:41:18;2.58;;;2.00;;
8279;SDS011;8335;42.646;23.380;2023-08-07T11:43:45;2.25;;;1.80;;
8279;SDS011;8335;42.646;23.380;2023-08-07T11:46:13;1.80;;;1.70;;
8279;SDS011;8335;42.646;23.380;2023-08-07T11:48:42;1.73;;;1.60;;
8279;SDS011;8335;42.646;23.380;2023-08-07T11:51:11;7.53;;;2.05;;
8279;SDS011;8335;42.646;23.380;2023-08-07T11:53:39;2.67;;;1.77;;
8279;SDS011;8335;42.646;23.380;2023-08-07T11:56:07;2.70;;;1.75;;
8279;SDS011;8335;42.646;23.380;2023-08-07T11:58:36;2.50;;;1.70;;
8279;SDS011;8335;42.646;23.380;2023-08-07T12:01:04;3.80;;;1.95;;
8279;SDS011;8335;42.646;23.380;2023-08-07T12:03:32;2.55;;;1.83;;
8279;SDS011;8335;42.646;23.380;2023-08-07T12:06:02;2.30;;;2.10;;
8279;SDS011;8335;42.646;23.380;2023-08-07T12:08:34;2.58;;;1.70;;
8279;SDS011;8335;42.646;23.380;2023-08-07T12:11:02;2.17;;;1.75;;
8279;SDS011;8335;42.646;23.380;2023-08-07T12:13:30;4.40;;;1.80;;
8279;SDS011;8335;42.646;23.380;2023-08-07T12:16:00;1.83;;;1.52;;
8279;SDS011;8335;42.646;23.380;2023-08-07T12:18:28;2.70;;;1.60;;
8279;SDS011;8335;42.646;23.380;2023-08-07T12:20:59;2.33;;;1.95;;
8279;SDS011;8335;42.646;23.380;2023-08-07T12:23:27;2.85;;;1.98;;
8279;SDS011;8335;42.646;23.380;2023-08-07T12:25:55;2.00;;;1.80;;
8279;SDS011;8335;42.646;23.380;2023-08-07T12:28:22;5.43;;;1.80;;
8279;SDS011;8335;42.646;23.380;2023-08-07T12:30:49;2.40;;;1.55;;
8279;SDS011;8335;42.646;23.380;2023-08-07T12:33:17;1.60;;;1.50;;
8279;SDS011;8335;42.646;23.380;2023-08-07T12:35:44;5.50;;;1.95;;
8279;SDS011;8335;42.646;23.380;2023-08-07T12:38:11;3.83;;;2.15;;
8279;SDS011;8335;42.646;23.380;2023-08-07T12:40:39;2.67;;;1.70;;
8279;SDS011;8335;42.646;23.380;2023-08-07T12:43:08;2.17;;;1.90;;
8279;SDS011;8335;42.646;23.380;2023-08-07T12:45:35;2.33;;;2.08;;
8279;SDS011;8335;42.646;23.380;2023-08-07T12:48:02;2.38;;;1.65;;
8279;SDS011;8335;42.646;23.380;2023-08-07T12:50:29;2.60;;;1.50;;
8279;SDS011;8335;42.646;23.380;2023-08-07T12:52:56;2.03;;;1.83;;
8279;SDS011;8335;42.646;23.380;2023-08-07T12:55:23;2.67;;;2.20;;
8279;SDS011;8335;42.646;23.380;2023-08-07T12:57:51;2.78;;;2.05;;
8279;SDS011;8335;42.646;23.380;2023-08-07T13:00:20;2.65;;;1.98;;
8279;SDS011;8335;42.646;23.380;2023-08-07T13:02:47;5.35;;;2.97;;
8279;SDS011;8335;42.646;23.380;2023-08-07T13:05:15;2.85;;;2.10;;
8279;SDS011;8335;42.646;23.380;2023-08-07T13:07:43;4.53;;;2.03;;
8279;SDS011;8335;42.646;23.380;2023-08-07T13:10:11;2.10;;;1.90;;
8279;SDS011;8335;42.646;23.380;2023-08-07T13:12:40;2.47;;;2.10;;
8279;SDS011;8335;42.646;23.380;2023-08-07T13:15:08;2.33;;;1.80;;
8279;SDS011;8335;42.646;23.380;2023-08-07T13:17:40;1.92;;;1.77;;
8279;SDS011;8335;42.646;23.380;2023-08-07T13:20:07;5.57;;;2.17;;
8279;SDS011;8335;42.646;23.380;2023-08-07T13:22:35;3.70;;;1.90;;
8279;SDS011;8335;42.646;23.380;2023-08-07T13:25:02;4.43;;;2.03;;
8279;SDS011;8335;42.646;23.380;2023-08-07T13:27:29;2.05;;;1.80;;
8279;SDS011;8335;42.646;23.380;2023-08-07T13:29:56;5.25;;;1.90;;
8279;SDS011;8335;42.646;23.380;2023-08-07T13:32:24;2.75;;;1.80;;
8279;SDS011;8335;42.646;23.380;2023-08-07T13:34:52;3.88;;;2.05;;
8279;SDS011;8335;42.646;23.380;2023-08-07T13:37:19;2.38;;;2.00;;
8279;SDS011;8335;42.646;23.380;2023-08-07T13:39:46;4.47;;;2.30;;
8279;SDS011;8335;42.646;23.380;2023-08-07T13:42:15;4.65;;;1.95;;
8279;SDS011;8335;42.646;23.380;2023-08-07T13:44:42;4.28;;;1.90;;
8279;SDS011;8335;42.646;23.380;2023-08-07T13:47:09;2.95;;;2.00;;
8279;SDS011;8335;42.646;23.380;2023-08-07T13:49:36;2.65;;;1.90;;
8279;SDS011;8335;42.646;23.380;2023-08-07T13:52:05;2.88;;;2.10;;
8279;SDS011;8335;42.646;23.380;2023-08-07T13:54:32;4.07;;;2.08;;
8279;SDS011;8335;42.646;23.380;2023-08-07T13:56:59;6.38;;;2.50;;
8279;SDS011;8335;42.646;23.380;2023-08-07T13:59:25;2.90;;;2.30;;
8279;SDS011;8335;42.646;23.380;2023-08-07T14:01:52;4.75;;;1.98;;
8279;SDS011;8335;42.646;23.380;2023-08-07T14:04:21;3.67;;;2.00;;
8279;SDS011;8335;42.646;23.380;2023-08-07T14:06:47;5.40;;;2.25;;
8279;SDS011;8335;42.646;23.380;2023-08-07T14:09:16;3.95;;;2.50;;
8279;SDS011;8335;42.646;23.380;2023-08-07T14:11:43;2.20;;;1.95;;
8279;SDS011;8335;42.646;23.380;2023-08-07T14:14:10;3.38;;;1.98;;
8279;SDS011;8335;42.646;23.380;2023-08-07T14:16:37;2.50;;;1.50;;
8279;SDS011;8335;42.646;23.380;2023-08-07T14:19:03;5.25;;;1.88;;
8279;SDS011;8335;42.646;23.380;2023-08-07T14:21:30;4.47;;;2.05;;
8279;SDS011;8335;42.646;23.380;2023-08-07T14:23:57;2.10;;;1.90;;
8279;SDS011;8335;42.646;23.380;2023-08-07T14:26:25;2.90;;;2.00;;
8279;SDS011;8335;42.646;23.380;2023-08-07T14:28:52;7.55;;;2.50;;
8279;SDS011;8335;42.646;23.380;2023-08-07T14:31:18;3.97;;;2.17;;
8279;SDS011;8335;42.646;23.380;2023-08-07T14:33:45;3.28;;;2.08;;
8279;SDS011;8335;42.646;23.380;2023-08-07T14:36:12;2.20;;;2.00;;
8279;SDS011;8335;42.646;23.380;2023-08-07T14:38:40;2.10;;;1.80;;
8279;SDS011;8335;42.646;23.380;2023-08-07T14:41:06;4.38;;;2.20;;
8279;SDS011;8335;42.646;23.380;2023-08-07T14:43:35;2.80;;;2.00;;
8279;SDS011;8335;42.646;23.380;2023-08-07T14:46:01;3.78;;;1.80;;
8279;SDS011;8335;42.646;23.380;2023-08-07T14:48:28;2.20;;;1.77;;
8279;SDS011;8335;42.646;23.380;2023-08-07T14:50:55;4.32;;;2.00;;
8279;SDS011;8335;42.646;23.380;2023-08-07T14:53:22;3.47;;;1.80;;
8279;SDS011;8335;42.646;23.380;2023-08-07T14:55:50;2.50;;;1.98;;
8279;SDS011;8335;42.646;23.380;2023-08-07T14:58:17;5.57;;;1.80;;
8279;SDS011;8335;42.646;23.380;2023-08-07T15:00:45;1.92;;;1.80;;
8279;SDS011;8335;42.646;23.380;2023-08-07T15:03:14;2.58;;;2.03;;